Terminal Aerodrome Forecast
Issued by NWS Sterling, VA

Current Version | Previous Version | Graphics & Text | Print | Product List | Glossary On
Versions: 1 2 3 4 5 6 7 8 9 10 11 12 13 14 15 16 17 18 19 20 21 22 23 24 25 26 27 28 29 30
000
FTUS41 KLWX 301738
TAFDCA
TAF
KDCA 301738Z 3018/0118 20010G18KT P6SM VCTS SCT045CB
     FM301900 19009KT P6SM VCTS BKN045CB
     FM010000 18005KT P6SM VCTS OVC050CB
     FM010100 18004KT P6SM -TSRA OVC050CB
     FM010400 VRB03KT P6SM VCTS BKN050CB
     FM010600 VRB03KT P6SM OVC050
     FM011300 26006KT P6SM SCT050=

USA.gov is the U.S. government's official web portal to all federal, state and local government web resources and services.